CheckWX is a tool to help pilots better visualize weather data.  It is not intended as a substitute for an official pre-flight weather briefing.

02:10:47 UTC

CYSJ METAR
Saint John Airport
Saint John, Canada
Current

1 hour ago

CYSJ 100100Z 17020G29KT 5SM -RA BR OVC004 09/09 A2995 RMK SC8 PRESFR SLP147
Observed
Dec-10 @ 01:00 UTC
Wind
  • 170° at 20 KTS
  • Gusting to 29 KTS
Visibility
5 SM
Flight Rules
LIFR
Conditions
Light Rain, Mist
Cloud Levels
  • Overcast at 400' AGL
Temperature
C / 48°F
Dewpoint
C / 48°F
Humidity
100%
Altimeter
29.95" Hg
Pressure
1014.22 hPa
Previous

1 hour ago

CYSJ 100050Z 17020G28KT 5SM -RA BR OVC004 09/09 A2996 RMK SC8 PRESFR SLP151
Observed
Dec-10 @ 00:50 UTC
Wind
  • 170° at 20 KTS
  • Gusting to 28 KTS
Visibility
5 SM
Flight Rules
LIFR
Conditions
Light Rain, Mist
Cloud Levels
  • Overcast at 400' AGL
Temperature
C / 48°F
Dewpoint
C / 48°F
Humidity
100%
Altimeter
29.96" Hg
Pressure
1014.52 hPa
Previous

2 hours ago

CYSJ 100000Z 17017G27KT 4SM RA BR OVC005 09/08 A3000 RMK SC8 SLP165
Observed
Dec-10 @ 00:00 UTC
Wind
  • 170° at 17 KTS
  • Gusting to 27 KTS
Visibility
4 SM
Flight Rules
IFR
Conditions
Rain, Mist
Cloud Levels
  • Overcast at 500' AGL
Temperature
C / 48°F
Dewpoint
C / 46°F
Humidity
94%
Altimeter
30" Hg
Pressure
1015.92 hPa